Portada
METAR-TAF:

METAR-TAF

Aeroports :

Saint-Pierre, Reunió

latitud: 21-20S, longitud: 055-29E, altitud: 52 m

Observació

L'informe es va fer fa 31 minuts, a les 22:30 UTC
Vent 4 kt del Nord-Est
Temperatura 24°C
Humitat 83%
Pressió 1013 hPa
Visibilitat 10 km o més
Escasses núvols a una alçada de 2600 ft

METAR: FMEP 192230Z AUTO 04004KT 9999 FEW026 24/21 Q1013

Hora: 03:01 (23:01 UTC)

Pronòstic

L'informe es va fer fa 12 hores i 1 minuts, a les 11:00 UTC
Pronòstic vàlid del 19 a les 12 UTC al 19 a les 21 UTC
Vent 5 kt del Oest
Visibilitat 10 km o més
Escasses núvols a una alçada de 2000 ft
Cel ennuvolat a una alçada de 5000 ft

TAF: FMEP 191100Z 1912/1921 27005KT 9999 FEW020 BKN050

Observacions i pronòstics meteorològics de més de 4000 aeroports (METAR i TAF).

Les estacions disponibles són els punts grocs i vermells al mapa.

Posi el ratolí al punt desitjat per veure el nom de l'estació.

Feu clic per veure les observacions i els pronòstics meteorològics.

Per canviar el mapa: feu clic els botons verds amb una creu de color negre per apropar; al botó verd amb un guió per allunyar la imatge; o en les fletxes verdes per a mapes adjacents.


METAR-TAF: